createdAt,value
2024-01-16T00:00:12.278Z,99425.81
2024-01-16T00:02:39.297Z,99433.38
2024-01-16T00:05:06.216Z,99427.44
2024-01-16T00:07:32.662Z,99426.56
2024-01-16T00:09:59.331Z,99429.09
2024-01-16T00:12:25.739Z,99429.00
2024-01-16T00:14:52.943Z,99431.47
2024-01-16T00:17:19.683Z,99432.25
2024-01-16T00:19:46.457Z,99434.59
2024-01-16T00:22:13.161Z,99434.56
2024-01-16T00:24:39.998Z,99440.31
2024-01-16T00:27:08.880Z,99435.31
2024-01-16T00:29:38.831Z,99446.19
2024-01-16T00:32:05.698Z,99467.94
2024-01-16T00:34:32.238Z,99475.63
2024-01-16T00:36:58.778Z,99484.00
2024-01-16T00:39:25.179Z,99494.91
2024-01-16T00:41:51.916Z,99487.41
2024-01-16T00:44:18.414Z,99496.59
2024-01-16T00:46:44.916Z,99499.16
2024-01-16T00:49:11.680Z,99503.25
2024-01-16T00:51:38.441Z,99511.53
2024-01-16T00:54:05.085Z,99517.81
2024-01-16T00:56:31.772Z,99503.00
2024-01-16T00:58:58.574Z,99503.69
2024-01-16T01:01:25.338Z,99513.50
2024-01-16T01:03:52.891Z,99527.47
2024-01-16T01:06:19.692Z,99529.81
2024-01-16T01:08:46.303Z,99531.38
2024-01-16T01:11:13.580Z,99543.28
2024-01-16T01:13:40.041Z,99558.63
2024-01-16T01:16:06.978Z,99561.91
2024-01-16T01:18:33.751Z,99551.78
2024-01-16T01:21:00.241Z,99553.19
2024-01-16T01:23:26.878Z,99539.88
2024-01-16T01:25:53.583Z,99540.72
2024-01-16T01:28:20.155Z,99549.06
2024-01-16T01:30:46.862Z,99554.81
2024-01-16T01:33:13.970Z,99553.13
2024-01-16T01:35:40.645Z,99547.19
2024-01-16T01:38:07.155Z,99560.59
2024-01-16T01:40:34.005Z,99552.16
2024-01-16T01:43:18.466Z,99552.09
2024-01-16T01:45:45.173Z,99558.84
2024-01-16T01:48:11.780Z,99571.50
2024-01-16T01:50:38.548Z,99568.34
2024-01-16T01:53:05.655Z,99566.59
2024-01-16T01:55:32.423Z,99569.09
2024-01-16T01:57:58.903Z,99559.84
2024-01-16T02:00:25.365Z,99562.41
2024-01-16T02:02:51.759Z,99568.97
2024-01-16T02:05:18.790Z,99583.84
2024-01-16T02:07:45.748Z,99582.84
2024-01-16T02:10:12.805Z,99579.59
2024-01-16T02:12:39.565Z,99574.63
2024-01-16T02:15:06.509Z,99576.75
2024-01-16T02:17:33.242Z,99588.56
2024-01-16T02:20:00.091Z,99585.41
2024-01-16T02:22:30.187Z,99591.03
2024-01-16T02:24:57.753Z,99591.00
2024-01-16T02:27:24.455Z,99601.84
2024-01-16T02:29:51.169Z,99597.47
2024-01-16T02:32:17.910Z,99591.41
2024-01-16T02:34:44.773Z,99603.09
2024-01-16T02:37:11.318Z,99600.03
2024-01-16T02:39:37.732Z,99603.91
2024-01-16T02:42:04.446Z,99617.19
2024-01-16T02:44:30.934Z,99625.63
2024-01-16T02:46:57.652Z,99631.44
2024-01-16T02:49:24.326Z,99624.72
2024-01-16T02:51:50.772Z,99620.56
2024-01-16T02:54:20.896Z,99625.44
2024-01-16T02:56:47.450Z,99626.78
2024-01-16T02:59:14.254Z,99626.56
2024-01-16T03:01:40.759Z,99635.53
2024-01-16T03:04:07.326Z,99630.22
2024-01-16T03:06:34.141Z,99635.78
2024-01-16T03:09:00.704Z,99644.66
2024-01-16T03:11:27.489Z,99653.69
2024-01-16T03:13:54.354Z,99661.22
2024-01-16T03:16:21.130Z,99666.03
2024-01-16T03:18:47.742Z,99674.00
2024-01-16T03:21:14.784Z,99678.84
2024-01-16T03:23:41.380Z,99687.00
2024-01-16T03:26:07.960Z,99701.81
2024-01-16T03:28:34.452Z,99703.34
2024-01-16T03:31:01.386Z,99711.72
2024-01-16T03:33:28.253Z,99711.53
2024-01-16T03:35:54.736Z,99713.31
2024-01-16T03:38:21.156Z,99711.53
2024-01-16T03:40:47.530Z,99713.31
2024-01-16T03:43:14.003Z,99710.22
2024-01-16T03:45:40.607Z,99716.94
2024-01-16T03:48:07.332Z,99727.94
2024-01-16T03:50:34.175Z,99732.31
2024-01-16T03:53:00.897Z,99738.44
2024-01-16T03:55:27.680Z,99731.00
2024-01-16T03:57:54.248Z,99735.25
2024-01-16T04:00:20.806Z,99738.66
2024-01-16T04:02:47.571Z,99759.56
2024-01-16T04:05:14.373Z,99757.13
2024-01-16T04:07:40.895Z,99762.22
2024-01-16T04:10:08.333Z,99758.34
2024-01-16T04:12:35.036Z,99750.66
2024-01-16T04:15:01.468Z,99759.84
2024-01-16T04:17:27.924Z,99763.28
2024-01-16T04:19:54.464Z,99754.22
2024-01-16T04:22:20.915Z,99763.63
2024-01-16T04:24:47.342Z,99756.91
2024-01-16T04:27:13.796Z,99749.38
2024-01-16T04:29:40.553Z,99753.56
2024-01-16T04:32:07.359Z,99753.56
2024-01-16T04:34:33.887Z,99754.38
2024-01-16T04:37:00.617Z,99755.50
2024-01-16T04:39:27.316Z,99763.81
2024-01-16T04:41:54.065Z,99768.03
2024-01-16T04:44:20.761Z,99775.44
2024-01-16T04:46:47.248Z,99772.78
2024-01-16T04:49:13.769Z,99784.47
2024-01-16T04:51:40.268Z,99795.34
2024-01-16T04:54:06.716Z,99787.81
2024-01-16T04:56:33.327Z,99791.13
2024-01-16T04:58:59.852Z,99787.81
2024-01-16T05:01:26.332Z,99786.84
2024-01-16T05:03:52.832Z,99781.69
2024-01-16T05:06:19.455Z,99782.47
2024-01-16T05:08:46.335Z,99785.00
2024-01-16T05:11:12.840Z,99795.03
2024-01-16T05:13:39.446Z,99779.13
2024-01-16T05:16:06.910Z,99790.25
2024-01-16T05:18:33.756Z,99793.38
2024-01-16T05:21:00.972Z,99789.91
2024-01-16T05:23:27.787Z,99791.50
2024-01-16T05:25:54.573Z,99795.94
2024-01-16T05:28:21.018Z,99799.81
2024-01-16T05:30:47.573Z,99804.88
2024-01-16T05:33:14.420Z,99810.84
2024-01-16T05:35:41.045Z,99816.78
2024-01-16T05:38:07.548Z,99813.38
2024-01-16T05:40:34.044Z,99809.69
2024-01-16T05:43:00.728Z,99808.09
2024-01-16T05:45:27.159Z,99812.91
2024-01-16T05:47:53.905Z,99821.16
2024-01-16T05:50:20.471Z,99827.00
2024-01-16T05:52:47.529Z,99831.19
2024-01-16T05:55:14.105Z,99833.63
2024-01-16T05:57:40.566Z,99840.63
2024-01-16T06:00:07.923Z,99847.34
2024-01-16T06:02:34.468Z,99844.00
2024-01-16T06:05:00.992Z,99843.72
2024-01-16T06:07:27.736Z,99848.03
2024-01-16T06:09:54.424Z,99852.94
2024-01-16T06:12:20.857Z,99855.19
2024-01-16T06:14:47.652Z,99856.19
2024-01-16T06:17:14.242Z,99867.19
2024-01-16T06:19:40.696Z,99868.41
2024-01-16T06:22:07.508Z,99861.56
2024-01-16T06:24:34.031Z,99865.84
2024-01-16T06:27:00.912Z,99868.56
2024-01-16T06:29:34.549Z,99869.94
2024-01-16T06:32:03.274Z,99876.00
2024-01-16T06:34:30.045Z,99882.47
2024-01-16T06:36:57.026Z,99886.69
2024-01-16T06:39:23.786Z,99894.41
2024-01-16T06:41:50.458Z,99899.47
2024-01-16T06:44:17.282Z,99909.50
2024-01-16T06:46:43.738Z,99907.13
2024-01-16T06:49:10.286Z,99909.03
2024-01-16T06:51:37.098Z,99913.13
2024-01-16T06:54:03.895Z,99908.16
2024-01-16T06:56:30.840Z,99916.66
2024-01-16T06:58:57.528Z,99920.34
2024-01-16T07:01:24.204Z,99925.16
2024-01-16T07:03:50.681Z,99923.50
2024-01-16T07:06:17.210Z,99928.47
2024-01-16T07:08:44.022Z,99925.88
2024-01-16T07:11:10.549Z,99923.00
2024-01-16T07:13:37.073Z,99926.88
2024-01-16T07:16:03.892Z,99935.13
2024-01-16T07:18:30.765Z,99944.25
2024-01-16T07:20:57.826Z,99945.22
2024-01-16T07:23:24.623Z,99950.38
2024-01-16T07:25:51.150Z,99956.47
2024-01-16T07:28:17.615Z,99957.84
2024-01-16T07:30:44.105Z,99961.56
2024-01-16T07:33:10.620Z,99965.53
2024-01-16T07:35:37.423Z,99962.13
2024-01-16T07:38:05.647Z,99963.66
2024-01-16T07:40:32.597Z,99967.56
2024-01-16T07:42:59.194Z,99973.25
2024-01-16T07:45:25.639Z,99977.47
2024-01-16T07:47:52.257Z,99970.19
2024-01-16T07:50:18.792Z,99968.00
2024-01-16T07:52:45.232Z,99965.72
2024-01-16T07:55:11.943Z,99969.22
2024-01-16T07:57:38.487Z,99967.00
2024-01-16T08:00:05.488Z,99971.28
2024-01-16T08:02:35.874Z,99969.72
2024-01-16T08:05:02.446Z,99977.44
2024-01-16T08:07:29.161Z,99978.53
2024-01-16T08:09:55.624Z,99993.59
2024-01-16T08:12:22.329Z,99995.50
2024-01-16T08:14:48.831Z,99999.75
2024-01-16T08:17:15.477Z,99998.06
2024-01-16T08:19:42.649Z,99992.34
2024-01-16T08:22:10.490Z,100002.41
2024-01-16T08:24:37.256Z,100003.25
2024-01-16T08:27:03.793Z,100009.25
2024-01-16T08:29:30.607Z,100001.00
2024-01-16T08:31:57.060Z,99997.78
2024-01-16T08:34:23.601Z,99998.75
2024-01-16T08:36:50.381Z,100007.38
2024-01-16T08:39:16.872Z,100016.81
2024-01-16T08:41:43.564Z,100012.75
2024-01-16T08:44:10.283Z,100019.38
2024-01-16T08:46:36.964Z,100016.75
2024-01-16T08:49:03.527Z,100013.31
2024-01-16T08:51:29.958Z,100018.53
2024-01-16T08:53:56.751Z,100018.69
2024-01-16T08:56:23.245Z,100013.66
2024-01-16T08:58:49.722Z,100012.25
2024-01-16T09:01:16.834Z,100022.44
2024-01-16T09:03:43.314Z,100020.91
2024-01-16T09:06:10.299Z,100020.44
2024-01-16T09:08:36.961Z,100018.00
2024-01-16T09:11:03.784Z,100026.50
2024-01-16T09:13:30.278Z,100025.63
2024-01-16T09:15:56.982Z,100027.06
2024-01-16T09:18:23.685Z,100027.25
2024-01-16T09:20:50.196Z,100031.56
2024-01-16T09:23:16.708Z,100033.28
2024-01-16T09:25:45.426Z,100035.00
2024-01-16T09:28:13.316Z,100035.00
2024-01-16T09:30:40.126Z,100042.47
2024-01-16T09:33:06.659Z,100039.34
2024-01-16T09:35:34.088Z,100041.97
2024-01-16T09:38:00.626Z,100033.53
2024-01-16T09:40:27.873Z,100042.06
2024-01-16T09:42:54.576Z,100031.47
2024-01-16T09:45:21.744Z,100026.56
2024-01-16T09:47:51.855Z,100031.53
2024-01-16T09:50:20.331Z,100037.31
2024-01-16T09:52:47.750Z,100042.81
2024-01-16T09:55:15.525Z,100045.19
2024-01-16T09:57:42.526Z,100046.78
2024-01-16T10:00:11.822Z,100058.66
2024-01-16T10:02:40.177Z,100049.63
2024-01-16T10:05:11.236Z,100052.00
2024-01-16T10:07:42.550Z,100046.97
2024-01-16T10:10:10.514Z,100051.13
2024-01-16T10:12:37.022Z,100053.63
2024-01-16T10:15:06.886Z,100052.66
2024-01-16T10:17:40.334Z,100059.53
2024-01-16T10:20:08.762Z,100062.03
2024-01-16T10:22:35.227Z,100060.00
2024-01-16T10:25:12.079Z,100060.84
2024-01-16T10:27:41.042Z,100058.66
2024-01-16T10:30:08.235Z,100051.63
2024-01-16T10:32:40.473Z,100053.66
2024-01-16T10:35:15.314Z,100053.75
2024-01-16T10:37:41.963Z,100051.63
2024-01-16T10:40:09.108Z,100050.09
2024-01-16T10:42:35.810Z,100050.31
2024-01-16T10:45:02.220Z,100049.06
2024-01-16T10:47:29.008Z,100053.50
2024-01-16T10:49:55.572Z,100055.50
2024-01-16T10:52:28.632Z,100047.94
2024-01-16T10:55:00.841Z,100055.63
2024-01-16T10:57:29.143Z,100051.66
2024-01-16T11:00:05.341Z,100052.75
2024-01-16T11:02:39.382Z,100049.81
2024-01-16T11:05:06.233Z,100040.66
2024-01-16T11:07:35.400Z,100041.03
2024-01-16T11:10:02.917Z,100056.66
2024-01-16T11:12:31.892Z,100045.22
2024-01-16T11:15:01.410Z,100050.91
2024-01-16T11:17:32.443Z,100049.47
2024-01-16T11:20:13.502Z,100045.34
2024-01-16T11:22:47.342Z,100039.78
2024-01-16T11:25:15.388Z,100034.97
2024-01-16T11:27:43.942Z,100026.50
2024-01-16T11:30:12.597Z,100042.31
2024-01-16T11:32:40.392Z,100029.66
2024-01-16T11:35:13.264Z,100026.25
2024-01-16T11:37:42.603Z,100021.94
2024-01-16T11:40:18.520Z,100022.69
2024-01-16T11:42:45.343Z,100028.59
2024-01-16T11:45:30.208Z,100020.19
2024-01-16T11:48:28.719Z,100016.84
2024-01-16T11:50:56.035Z,100024.53
2024-01-16T11:53:31.644Z,100023.72
2024-01-16T11:56:24.860Z,100018.78
2024-01-16T11:59:16.270Z,100017.25
2024-01-16T12:01:46.694Z,100019.00
2024-01-16T12:04:15.282Z,100022.63
2024-01-16T12:06:41.872Z,100024.13
2024-01-16T12:09:13.437Z,100011.53
2024-01-16T12:11:43.809Z,100007.38
2024-01-16T12:14:10.610Z,100015.06
2024-01-16T12:16:37.413Z,100011.69
2024-01-16T12:19:11.332Z,100012.56
2024-01-16T12:21:45.212Z,100010.84
2024-01-16T12:24:15.827Z,100003.22
2024-01-16T12:26:45.027Z,100003.19
2024-01-16T12:29:11.697Z,99994.69
2024-01-16T12:31:38.511Z,99992.19
2024-01-16T12:34:11.689Z,99987.91
2024-01-16T12:36:39.105Z,99978.69
2024-01-16T12:39:05.802Z,99984.66
2024-01-16T12:41:44.740Z,99977.09
2024-01-16T12:44:16.405Z,99970.59
2024-01-16T12:47:05.552Z,99964.81
2024-01-16T12:49:32.217Z,99966.56
2024-01-16T12:52:18.440Z,99963.97
2024-01-16T12:54:45.301Z,99972.31
2024-01-16T12:57:18.374Z,99965.50
2024-01-16T12:59:45.000Z,99965.59
2024-01-16T13:02:20.107Z,99970.59
2024-01-16T13:04:47.551Z,99964.69
2024-01-16T13:07:17.443Z,99959.94
2024-01-16T13:09:43.976Z,99958.31
2024-01-16T13:12:20.621Z,99964.75
2024-01-16T13:14:47.410Z,99960.34
2024-01-16T13:17:14.209Z,99968.03
2024-01-16T13:19:42.130Z,99965.66
2024-01-16T13:22:08.570Z,99956.50
2024-01-16T13:24:35.162Z,99955.44
2024-01-16T13:27:01.928Z,99967.22
2024-01-16T13:29:28.532Z,99961.22
2024-01-16T13:31:55.273Z,99958.91
2024-01-16T13:34:23.542Z,99958.13
2024-01-16T13:37:08.415Z,99966.78
2024-01-16T13:39:40.159Z,99971.84
2024-01-16T13:42:07.101Z,99968.28
2024-01-16T13:44:33.810Z,99972.53
2024-01-16T13:47:07.073Z,99973.34
2024-01-16T13:49:38.053Z,99969.84
2024-01-16T13:52:04.852Z,99975.00
2024-01-16T13:54:32.876Z,99975.00
2024-01-16T13:57:06.262Z,99974.94
2024-01-16T13:59:35.800Z,99964.16
2024-01-16T14:02:06.037Z,99966.91
2024-01-16T14:04:33.462Z,99967.81
2024-01-16T14:07:11.857Z,99960.03
2024-01-16T14:09:45.022Z,99960.91
2024-01-16T14:12:12.697Z,99965.22
2024-01-16T14:14:42.023Z,99963.66
2024-01-16T14:17:08.608Z,99966.91
2024-01-16T14:19:38.447Z,99961.84
2024-01-16T14:22:07.238Z,99962.56
2024-01-16T14:24:33.726Z,99961.69
2024-01-16T14:27:00.539Z,99959.81
2024-01-16T14:29:27.312Z,99959.81
2024-01-16T14:31:54.172Z,99964.06
2024-01-16T14:34:20.962Z,99956.50
2024-01-16T14:36:48.099Z,99948.94
2024-01-16T14:39:14.882Z,99943.91
2024-01-16T14:41:41.406Z,99944.81
2024-01-16T14:44:10.359Z,99948.09
2024-01-16T14:46:37.285Z,99951.47
2024-01-16T14:49:04.070Z,99960.72
2024-01-16T14:51:30.676Z,99956.44
2024-01-16T14:53:57.533Z,99952.22
2024-01-16T14:56:26.604Z,99960.63
2024-01-16T14:58:53.272Z,99958.13
2024-01-16T15:01:19.866Z,99963.16
2024-01-16T15:03:46.596Z,99958.84
2024-01-16T15:06:13.173Z,99963.78
2024-01-16T15:08:40.238Z,99964.59
2024-01-16T15:11:07.036Z,99964.66
2024-01-16T15:13:33.729Z,99968.81
2024-01-16T15:16:00.348Z,99963.69
2024-01-16T15:18:27.202Z,99973.88
2024-01-16T15:20:55.063Z,99970.44
2024-01-16T15:23:21.625Z,99965.41
2024-01-16T15:25:48.120Z,99969.91
2024-01-16T15:28:14.550Z,99977.28
2024-01-16T15:30:41.037Z,99975.56
2024-01-16T15:33:07.843Z,99968.94
2024-01-16T15:35:34.616Z,99978.94
2024-01-16T15:38:01.299Z,99979.66
2024-01-16T15:40:28.070Z,99982.31
2024-01-16T15:42:54.556Z,99982.28
2024-01-16T15:45:22.621Z,99976.34
2024-01-16T15:47:51.332Z,99985.56
2024-01-16T15:50:17.802Z,99992.19
2024-01-16T15:52:44.507Z,99991.38
2024-01-16T15:55:10.963Z,99994.66
2024-01-16T15:57:38.030Z,99988.06
2024-01-16T16:00:06.341Z,99998.88
2024-01-16T16:02:33.067Z,100006.16
2024-01-16T16:04:59.504Z,100004.44
2024-01-16T16:07:27.150Z,100008.47
2024-01-16T16:09:53.679Z,100001.75
2024-01-16T16:12:20.372Z,100011.94
2024-01-16T16:14:47.423Z,100012.63
2024-01-16T16:17:14.242Z,100009.22
2024-01-16T16:19:41.643Z,100013.34
2024-01-16T16:22:08.446Z,100013.31
2024-01-16T16:24:36.145Z,100013.38
2024-01-16T16:27:02.664Z,100010.00
2024-01-16T16:29:29.421Z,100005.75
2024-01-16T16:31:56.218Z,100020.09
2024-01-16T16:34:23.023Z,100025.03
2024-01-16T16:36:49.539Z,100029.16
2024-01-16T16:39:16.041Z,100028.66
2024-01-16T16:41:43.534Z,100033.47
2024-01-16T16:44:10.045Z,100031.81
2024-01-16T16:46:36.556Z,100030.22
2024-01-16T16:49:03.348Z,100022.59
2024-01-16T16:51:30.096Z,100031.81
2024-01-16T16:53:56.651Z,100038.50
2024-01-16T16:56:24.207Z,100036.00
2024-01-16T16:58:51.966Z,100031.88
2024-01-16T17:01:20.481Z,100035.25
2024-01-16T17:03:48.838Z,100045.44
2024-01-16T17:06:15.611Z,100034.44
2024-01-16T17:08:42.195Z,100035.25
2024-01-16T17:11:08.774Z,100036.97
2024-01-16T17:13:37.101Z,100030.22
2024-01-16T17:16:03.949Z,100036.25
2024-01-16T17:18:32.256Z,100031.81
2024-01-16T17:20:59.185Z,100040.22
2024-01-16T17:23:25.741Z,100030.09
2024-01-16T17:25:52.820Z,100038.50
2024-01-16T17:28:19.266Z,100031.75
2024-01-16T17:30:45.934Z,100039.38
2024-01-16T17:33:12.732Z,100040.19
2024-01-16T17:35:39.605Z,100035.97
2024-01-16T17:38:07.790Z,100036.78
2024-01-16T17:40:34.477Z,100035.91
2024-01-16T17:43:01.173Z,100032.44
2024-01-16T17:45:28.312Z,100037.53
2024-01-16T17:47:54.774Z,100036.56
2024-01-16T17:50:21.827Z,100031.53
2024-01-16T17:52:48.420Z,100033.19
2024-01-16T17:55:15.176Z,100031.53
2024-01-16T17:57:41.623Z,100032.28
2024-01-16T18:00:09.279Z,100029.72
2024-01-16T18:02:36.818Z,100031.34
2024-01-16T18:05:03.177Z,100039.69
2024-01-16T18:07:29.892Z,100042.25
2024-01-16T18:09:56.324Z,100043.13
2024-01-16T18:12:22.739Z,100045.59
2024-01-16T18:14:49.144Z,100048.09
2024-01-16T18:17:15.579Z,100047.34
2024-01-16T18:19:42.465Z,100043.19
2024-01-16T18:22:11.297Z,100035.63
2024-01-16T18:24:37.731Z,100047.38
2024-01-16T18:27:04.773Z,100043.97
2024-01-16T18:29:31.543Z,100044.03
2024-01-16T18:31:58.238Z,100045.69
2024-01-16T18:34:24.996Z,100048.97
2024-01-16T18:36:53.622Z,100045.59
2024-01-16T18:39:20.203Z,100043.13
2024-01-16T18:41:47.966Z,100049.00
2024-01-16T18:44:18.314Z,100055.59
2024-01-16T18:46:44.769Z,100059.13
2024-01-16T18:49:11.923Z,100056.69
2024-01-16T18:51:38.385Z,100057.25
2024-01-16T18:54:04.882Z,100063.03
2024-01-16T18:56:31.345Z,100057.81
2024-01-16T18:58:58.086Z,100061.88
2024-01-16T19:01:24.693Z,100065.97
2024-01-16T19:03:52.586Z,100066.66
2024-01-16T19:06:19.265Z,100068.13
2024-01-16T19:08:45.701Z,100065.63
2024-01-16T19:11:12.721Z,100068.84
2024-01-16T19:13:39.350Z,100068.75
2024-01-16T19:16:06.187Z,100064.75
2024-01-16T19:18:33.048Z,100066.34
2024-01-16T19:20:59.746Z,100067.03
2024-01-16T19:23:26.274Z,100064.56
2024-01-16T19:25:52.715Z,100059.59
2024-01-16T19:28:19.177Z,100056.16
2024-01-16T19:30:46.014Z,100055.25
2024-01-16T19:33:12.678Z,100062.09
2024-01-16T19:35:39.488Z,100065.44
2024-01-16T19:38:05.942Z,100059.41
2024-01-16T19:40:32.602Z,100064.44
2024-01-16T19:42:59.052Z,100066.16
2024-01-16T19:45:25.478Z,100069.72
2024-01-16T19:47:52.195Z,100072.28
2024-01-16T19:50:19.027Z,100065.44
2024-01-16T19:52:49.199Z,100069.66
2024-01-16T19:55:15.865Z,100068.84
2024-01-16T19:57:42.549Z,100071.44
2024-01-16T20:00:09.731Z,100069.00
2024-01-16T20:02:36.283Z,100073.34
2024-01-16T20:05:02.874Z,100066.72
2024-01-16T20:07:29.648Z,100061.63
2024-01-16T20:09:56.083Z,100065.84
2024-01-16T20:12:32.521Z,100064.13
2024-01-16T20:15:06.842Z,100059.09
2024-01-16T20:17:33.614Z,100065.00
2024-01-16T20:20:00.245Z,100063.34
2024-01-16T20:22:26.958Z,100068.25
2024-01-16T20:24:53.479Z,100067.63
2024-01-16T20:27:19.917Z,100071.75
2024-01-16T20:29:46.621Z,100065.84
2024-01-16T20:32:13.223Z,100067.50
2024-01-16T20:34:39.765Z,100075.91
2024-01-16T20:37:06.525Z,100069.13
2024-01-16T20:39:32.955Z,100066.66
2024-01-16T20:41:59.635Z,100067.47
2024-01-16T20:44:26.142Z,100067.47
2024-01-16T20:46:52.520Z,100075.06
2024-01-16T20:49:19.140Z,100063.16
2024-01-16T20:51:46.232Z,100063.09
2024-01-16T20:54:12.951Z,100064.75
2024-01-16T20:56:42.899Z,100061.38
2024-01-16T20:59:09.541Z,100059.72
2024-01-16T21:01:38.307Z,100062.97
2024-01-16T21:04:04.749Z,100059.53
2024-01-16T21:06:31.490Z,100058.78
2024-01-16T21:08:58.274Z,100059.66
2024-01-16T21:11:25.297Z,100056.97
2024-01-16T21:13:51.771Z,100050.34
2024-01-16T21:16:19.182Z,100056.09
2024-01-16T21:18:46.042Z,100054.34
2024-01-16T21:21:12.869Z,100057.72
2024-01-16T21:23:42.460Z,100059.41
2024-01-16T21:26:09.822Z,100059.41
2024-01-16T21:28:36.731Z,100061.06
2024-01-16T21:31:03.690Z,100061.03
2024-01-16T21:33:33.989Z,100061.00
2024-01-16T21:36:00.997Z,100058.47
2024-01-16T21:38:27.893Z,100053.34
2024-01-16T21:40:54.713Z,100050.75
2024-01-16T21:43:21.403Z,100044.75
2024-01-16T21:45:47.838Z,100041.28
2024-01-16T21:48:14.405Z,100039.59
2024-01-16T21:50:41.236Z,100042.78
2024-01-16T21:53:08.006Z,100039.41
2024-01-16T21:55:34.496Z,100037.81
2024-01-16T21:58:01.039Z,100030.94
2024-01-16T22:00:27.580Z,100032.56
2024-01-16T22:02:54.284Z,100029.19
2024-01-16T22:05:21.068Z,100030.84
2024-01-16T22:07:47.716Z,100029.16
2024-01-16T22:10:14.446Z,100027.44
2024-01-16T22:12:41.119Z,100027.50
2024-01-16T22:15:08.244Z,100026.44
2024-01-16T22:17:35.379Z,100039.88
2024-01-16T22:20:01.880Z,100031.53
2024-01-16T22:22:28.415Z,100027.31
2024-01-16T22:24:55.146Z,100028.16
2024-01-16T22:27:21.602Z,100026.50
2024-01-16T22:29:48.268Z,100017.31
2024-01-16T22:32:14.800Z,100014.75
2024-01-16T22:34:41.596Z,100005.66
2024-01-16T22:37:08.305Z,100009.78
2024-01-16T22:39:35.063Z,100002.91
2024-01-16T22:42:01.811Z,99998.59
2024-01-16T22:44:28.416Z,100001.72
2024-01-16T22:46:55.093Z,99999.94
2024-01-16T22:49:21.662Z,100003.88
2024-01-16T22:51:48.124Z,100001.09
2024-01-16T22:54:14.691Z,99997.56
2024-01-16T22:56:41.438Z,99991.56
2024-01-16T22:59:08.345Z,99981.31
2024-01-16T23:01:34.760Z,99980.47
2024-01-16T23:04:01.215Z,99972.78
2024-01-16T23:06:28.024Z,99962.69
2024-01-16T23:08:58.534Z,99970.03
2024-01-16T23:11:25.179Z,99960.69
2024-01-16T23:13:52.988Z,99956.41
2024-01-16T23:16:19.556Z,99953.78
2024-01-16T23:18:47.304Z,99947.69
2024-01-16T23:21:17.512Z,99941.84
2024-01-16T23:23:45.247Z,99938.38
2024-01-16T23:26:12.378Z,99935.78
2024-01-16T23:28:39.603Z,99928.16
2024-01-16T23:31:06.948Z,99934.00
2024-01-16T23:33:34.983Z,99935.53
2024-01-16T23:36:02.307Z,99937.06
2024-01-16T23:38:28.858Z,99931.81
2024-01-16T23:40:56.429Z,99925.06
2024-01-16T23:43:23.552Z,99920.91
2024-01-16T23:45:50.234Z,99914.81
2024-01-16T23:48:17.506Z,99910.59
2024-01-16T23:50:44.285Z,99912.19
2024-01-16T23:53:10.748Z,99907.16
2024-01-16T23:55:37.480Z,99902.81
2024-01-16T23:58:04.309Z,99901.88
